createdAt,value
2022-08-09T00:01:54.979Z,100168.78
2022-08-09T00:04:34.502Z,100174.59
2022-08-09T00:07:07.706Z,100159.00
2022-08-09T00:09:47.721Z,100175.88
2022-08-09T00:12:22.745Z,100167.53
2022-08-09T00:14:54.447Z,100162.63
2022-08-09T00:18:04.360Z,100161.81
2022-08-09T00:20:17.010Z,100159.91
2022-08-09T00:22:47.258Z,100160.78
2022-08-09T00:25:23.450Z,100160.78
2022-08-09T00:28:04.519Z,100170.78
2022-08-09T00:30:32.829Z,100166.53
2022-08-09T00:33:02.812Z,100164.63
2022-08-09T00:35:43.349Z,100151.63
2022-08-09T00:38:21.437Z,100152.88
2022-08-09T00:40:53.968Z,100151.41
2022-08-09T00:44:16.465Z,100162.88
2022-08-09T00:46:11.419Z,100156.31
2022-08-09T00:48:57.558Z,100166.28
2022-08-09T00:51:27.639Z,100153.94
2022-08-09T00:54:03.291Z,100162.03
2022-08-09T00:56:31.132Z,100158.63
2022-08-09T00:59:00.862Z,100151.63
2022-08-09T01:01:44.551Z,100150.34
2022-08-09T01:04:34.211Z,100138.84
2022-08-09T01:07:12.288Z,100141.84
2022-08-09T01:09:54.395Z,100145.25
2022-08-09T01:12:35.557Z,100141.19
2022-08-09T01:15:17.694Z,100143.53
2022-08-09T01:17:59.637Z,100155.88
2022-08-09T01:20:55.598Z,100155.22
2022-08-09T01:24:03.160Z,100159.50
2022-08-09T01:26:59.383Z,100161.19
2022-08-09T01:29:41.394Z,100148.09
2022-08-09T01:32:31.750Z,100151.69
2022-08-09T01:35:07.014Z,100156.19
2022-08-09T01:38:09.508Z,100166.06
2022-08-09T01:40:52.787Z,100157.38
2022-08-09T01:43:50.097Z,100150.16
2022-08-09T01:46:24.891Z,100155.25
2022-08-09T01:48:59.747Z,100159.28
2022-08-09T01:51:32.166Z,100148.03
2022-08-09T01:54:06.460Z,100156.97
2022-08-09T01:56:38.286Z,100142.69
2022-08-09T01:59:15.173Z,100125.06
2022-08-09T02:01:58.604Z,100157.78
2022-08-09T02:04:31.267Z,100153.97
2022-08-09T02:08:35.853Z,100155.88
2022-08-09T02:10:31.542Z,100160.03
2022-08-09T02:13:09.606Z,100156.28
2022-08-09T02:15:49.347Z,100155.25
2022-08-09T02:18:24.225Z,100150.78
2022-08-09T02:21:00.159Z,100149.72
2022-08-09T02:23:45.517Z,100154.38
2022-08-09T02:26:25.106Z,100156.91
2022-08-09T02:28:57.918Z,100165.63
2022-08-09T02:31:37.975Z,100155.66
2022-08-09T02:34:13.810Z,100167.97
2022-08-09T02:37:12.119Z,100165.00
2022-08-09T02:39:49.920Z,100160.97
2022-08-09T02:42:34.267Z,100154.56
2022-08-09T02:45:14.019Z,100158.19
2022-08-09T02:47:57.513Z,100162.22
2022-08-09T02:50:34.832Z,100165.00
2022-08-09T02:53:17.299Z,100164.16
2022-08-09T02:56:00.073Z,100167.53
2022-08-09T02:58:36.331Z,100167.06
2022-08-09T03:01:10.864Z,100157.28
2022-08-09T03:04:12.413Z,100167.84
2022-08-09T03:06:31.763Z,100168.97
2022-08-09T03:09:01.976Z,100172.66
2022-08-09T03:12:05.971Z,100173.44
2022-08-09T03:14:28.152Z,100160.44
2022-08-09T03:16:58.336Z,100165.38
2022-08-09T03:19:59.204Z,100181.97
2022-08-09T03:22:24.980Z,100175.78
2022-08-09T03:25:21.786Z,100181.84
2022-08-09T03:27:56.730Z,100190.72
2022-08-09T03:30:33.032Z,100185.63
2022-08-09T03:33:12.741Z,100185.66
2022-08-09T03:36:12.792Z,100184.34
2022-08-09T03:38:44.630Z,100189.34
2022-08-09T03:41:16.327Z,100194.41
2022-08-09T03:44:08.565Z,100194.81
2022-08-09T03:46:36.589Z,100196.13
2022-08-09T03:49:07.883Z,100196.25
2022-08-09T03:51:55.184Z,100195.81
2022-08-09T03:54:31.384Z,100195.47
2022-08-09T03:57:18.649Z,100196.13
2022-08-09T03:59:55.470Z,100194.38
2022-08-09T04:02:27.843Z,100198.31
2022-08-09T04:05:00.935Z,100204.47
2022-08-09T04:07:47.657Z,100210.56
2022-08-09T04:10:29.719Z,100201.81
2022-08-09T04:13:03.982Z,100207.38
2022-08-09T04:15:52.085Z,100206.97
2022-08-09T04:18:25.184Z,100212.47
2022-08-09T04:21:05.693Z,100215.53
2022-08-09T04:23:34.011Z,100206.41
2022-08-09T04:26:02.517Z,100209.38
2022-08-09T04:28:36.258Z,100225.56
2022-08-09T04:31:09.355Z,100214.34
2022-08-09T04:33:52.056Z,100210.34
2022-08-09T04:36:24.513Z,100211.41
2022-08-09T04:38:56.186Z,100222.66
2022-08-09T04:41:32.326Z,100220.94
2022-08-09T04:44:12.403Z,100236.06
2022-08-09T04:46:59.148Z,100221.91
2022-08-09T04:49:53.926Z,100230.91
2022-08-09T04:52:42.416Z,100213.47
2022-08-09T04:55:12.340Z,100236.03
2022-08-09T04:57:54.463Z,100228.69
2022-08-09T05:00:35.913Z,100242.34
2022-08-09T05:03:30.141Z,100223.28
2022-08-09T05:06:04.394Z,100215.69
2022-08-09T05:08:35.187Z,100239.47
2022-08-09T05:11:06.730Z,100244.72
2022-08-09T05:13:38.652Z,100236.47
2022-08-09T05:16:08.690Z,100246.16
2022-08-09T05:18:57.461Z,100249.56
2022-08-09T05:21:36.644Z,100238.66
2022-08-09T05:24:15.925Z,100236.59
2022-08-09T05:26:45.970Z,100235.88
2022-08-09T05:29:31.576Z,100242.59
2022-08-09T05:32:02.786Z,100239.50
2022-08-09T05:34:34.304Z,100249.22
2022-08-09T05:37:06.428Z,100236.44
2022-08-09T05:39:43.258Z,100242.97
2022-08-09T05:42:21.348Z,100242.78
2022-08-09T05:44:54.494Z,100247.72
2022-08-09T05:47:33.196Z,100249.41
2022-08-09T05:50:26.628Z,100253.63
2022-08-09T05:52:53.548Z,100246.44
2022-08-09T05:55:24.274Z,100254.13
2022-08-09T05:57:56.860Z,100253.91
2022-08-09T06:00:29.078Z,100262.38
2022-08-09T06:03:03.677Z,100250.06
2022-08-09T06:05:56.958Z,100253.31
2022-08-09T06:08:25.453Z,100258.91
2022-08-09T06:10:55.742Z,100259.22
2022-08-09T06:13:28.743Z,100245.53
2022-08-09T06:16:04.756Z,100265.34
2022-08-09T06:18:35.294Z,100262.47
2022-08-09T06:21:06.936Z,100262.56
2022-08-09T06:23:55.745Z,100273.09
2022-08-09T06:26:28.496Z,100268.91
2022-08-09T06:29:00.106Z,100269.06
2022-08-09T06:31:40.457Z,100268.44
2022-08-09T06:34:26.058Z,100270.72
2022-08-09T06:37:00.063Z,100268.53
2022-08-09T06:39:58.182Z,100270.56
2022-08-09T06:42:24.386Z,100266.47
2022-08-09T06:44:54.514Z,100266.44
2022-08-09T06:47:24.119Z,100255.53
2022-08-09T06:50:14.518Z,100265.25
2022-08-09T06:52:56.179Z,100265.66
2022-08-09T06:55:26.685Z,100267.59
2022-08-09T06:58:03.198Z,100266.47
2022-08-09T07:00:55.579Z,100267.34
2022-08-09T07:03:27.874Z,100268.84
2022-08-09T07:06:03.802Z,100259.00
2022-08-09T07:08:37.238Z,100272.78
2022-08-09T07:11:08.641Z,100276.13
2022-08-09T07:13:45.399Z,100266.31
2022-08-09T07:16:41.579Z,100271.06
2022-08-09T07:19:22.863Z,100264.31
2022-08-09T07:21:57.031Z,100265.03
2022-08-09T07:24:40.234Z,100252.16
2022-08-09T07:27:33.847Z,100250.09
2022-08-09T07:30:02.374Z,100261.41
2022-08-09T07:32:33.079Z,100259.81
2022-08-09T07:35:10.225Z,100261.47
2022-08-09T07:37:44.831Z,100254.78
2022-08-09T07:40:20.612Z,100255.16
2022-08-09T07:42:58.864Z,100254.94
2022-08-09T07:45:37.901Z,100261.22
2022-08-09T07:48:28.836Z,100246.56
2022-08-09T07:51:03.200Z,100255.00
2022-08-09T07:54:06.237Z,100260.75
2022-08-09T07:56:34.040Z,100253.38
2022-08-09T07:59:12.366Z,100256.53
2022-08-09T08:01:53.115Z,100253.94
2022-08-09T08:04:21.030Z,100255.66
2022-08-09T08:07:15.173Z,100259.34
2022-08-09T08:10:08.525Z,100249.81
2022-08-09T08:12:43.158Z,100253.75
2022-08-09T08:15:17.394Z,100253.13
2022-08-09T08:17:58.428Z,100243.59
2022-08-09T08:20:32.666Z,100240.56
2022-08-09T08:23:16.435Z,100248.13
2022-08-09T08:25:49.812Z,100252.63
2022-08-09T08:28:25.985Z,100239.41
2022-08-09T08:31:13.928Z,100249.44
2022-08-09T08:33:53.891Z,100231.56
2022-08-09T08:36:29.593Z,100243.03
2022-08-09T08:39:00.295Z,100241.66
2022-08-09T08:41:50.528Z,100239.72
2022-08-09T08:44:28.820Z,100245.13
2022-08-09T08:47:12.307Z,100247.03
2022-08-09T08:49:49.876Z,100234.66
2022-08-09T08:55:10.932Z,100234.78
2022-08-09T08:57:44.040Z,100224.94
2022-08-09T09:00:34.048Z,100219.22
2022-08-09T09:03:11.426Z,100232.66
2022-08-09T09:05:58.211Z,100227.56
2022-08-09T09:08:40.223Z,100221.97
2022-08-09T09:11:17.579Z,100219.41
2022-08-09T09:13:55.587Z,100218.94
2022-08-09T09:16:34.571Z,100213.25
2022-08-09T09:19:22.610Z,100205.16
2022-08-09T09:21:59.616Z,100212.44
2022-08-09T09:24:37.791Z,100196.69
2022-08-09T09:27:09.271Z,100174.38
2022-08-09T09:30:10.739Z,100214.41
2022-08-09T09:32:40.851Z,100200.38
2022-08-09T09:35:15.679Z,100192.78
2022-08-09T09:37:46.094Z,100183.25
2022-08-09T09:40:13.514Z,100192.44
2022-08-09T09:42:58.833Z,100186.41
2022-08-09T09:45:29.568Z,100180.59
2022-08-09T09:48:04.254Z,100175.53
2022-08-09T09:50:50.552Z,100182.94
2022-08-09T09:53:43.834Z,100184.06
2022-08-09T09:56:20.061Z,100169.13
2022-08-09T09:58:59.061Z,100174.69
2022-08-09T10:01:38.101Z,100179.81
2022-08-09T10:04:22.992Z,100170.16
2022-08-09T10:07:03.349Z,100170.44
2022-08-09T10:09:54.919Z,100162.56
2022-08-09T10:12:43.547Z,100159.88
2022-08-09T10:15:50.657Z,100155.19
2022-08-09T10:18:13.081Z,100147.69
2022-08-09T10:20:44.581Z,100159.13
2022-08-09T10:23:21.091Z,100149.78
2022-08-09T10:26:07.218Z,100148.75
2022-08-09T10:28:41.791Z,100153.91
2022-08-09T10:34:10.673Z,100146.13
2022-08-09T10:36:50.941Z,100145.16
2022-08-09T10:39:20.427Z,100145.31
2022-08-09T10:41:50.852Z,100136.59
2022-08-09T10:44:22.932Z,100142.47
2022-08-09T10:48:16.570Z,100135.13
2022-08-09T10:51:01.718Z,100142.41
2022-08-09T10:54:09.997Z,100139.69
2022-08-09T10:56:42.848Z,100140.50
2022-08-09T10:59:55.385Z,100132.19
2022-08-09T11:03:14.570Z,100129.19
2022-08-09T11:05:30.006Z,100125.19
2022-08-09T11:08:47.066Z,100117.94
2022-08-09T11:11:19.098Z,100126.00
2022-08-09T11:14:38.402Z,100124.00
2022-08-09T11:17:35.026Z,100128.56
2022-08-09T11:20:23.058Z,100121.53
2022-08-09T11:22:56.731Z,100117.41
2022-08-09T11:25:47.906Z,100122.09
2022-08-09T11:28:53.327Z,100118.53
2022-08-09T11:31:43.514Z,100103.53
2022-08-09T11:34:28.124Z,100091.94
2022-08-09T11:36:59.574Z,100088.56
2022-08-09T11:39:37.815Z,100093.38
2022-08-09T11:42:14.602Z,100088.88
2022-08-09T11:44:50.102Z,100095.31
2022-08-09T11:47:19.776Z,100099.84
2022-08-09T11:50:56.318Z,100088.88
2022-08-09T11:53:58.728Z,100093.59
2022-08-09T11:55:53.644Z,100094.41
2022-08-09T11:58:48.086Z,100110.84
2022-08-09T12:01:37.874Z,100119.84
2022-08-09T12:04:23.928Z,100141.66
2022-08-09T12:07:16.287Z,100185.84
2022-08-09T12:09:50.848Z,100192.91
2022-08-09T12:12:20.297Z,100187.53
2022-08-09T12:15:07.622Z,100204.69
2022-08-09T12:17:43.430Z,100217.53
2022-08-09T12:20:16.567Z,100228.88
2022-08-09T12:22:56.431Z,100224.41
2022-08-09T12:25:37.951Z,100243.91
2022-08-09T12:28:59.288Z,100261.97
2022-08-09T12:31:02.882Z,100259.97
2022-08-09T12:33:58.381Z,100284.59
2022-08-09T12:36:33.596Z,100257.25
2022-08-09T12:39:02.290Z,100283.31
2022-08-09T12:41:38.977Z,100285.72
2022-08-09T12:44:10.175Z,100274.72
2022-08-09T12:46:49.208Z,100261.38
2022-08-09T12:49:20.978Z,100260.75
2022-08-09T12:52:01.990Z,100263.09
2022-08-09T12:55:03.183Z,100245.84
2022-08-09T12:57:40.840Z,100272.66
2022-08-09T13:00:25.935Z,100276.28
2022-08-09T13:02:58.831Z,100285.22
2022-08-09T13:05:35.530Z,100271.38
2022-08-09T13:08:21.212Z,100270.94
2022-08-09T13:11:23.348Z,100280.31
2022-08-09T13:14:41.458Z,100263.53
2022-08-09T13:16:47.154Z,100269.69
2022-08-09T13:20:09.908Z,100263.06
2022-08-09T13:23:01.403Z,100255.41
2022-08-09T13:25:55.003Z,100242.03
2022-08-09T13:28:35.592Z,100233.28
2022-08-09T13:32:13.951Z,100227.09
2022-08-09T13:34:02.228Z,100235.59
2022-08-09T13:36:42.561Z,100230.94
2022-08-09T13:41:51.667Z,100221.56
2022-08-09T13:42:11.042Z,100211.53
2022-08-09T13:44:49.238Z,100218.94
2022-08-09T13:47:31.090Z,100213.19
2022-08-09T13:50:30.072Z,100216.63
2022-08-09T13:52:58.325Z,100216.69
2022-08-09T13:55:28.889Z,100214.31
2022-08-09T13:57:58.507Z,100213.47
2022-08-09T14:00:30.497Z,100211.81
2022-08-09T14:03:03.249Z,100199.28
2022-08-09T14:06:00.291Z,100189.91
2022-08-09T14:08:31.877Z,100188.88
2022-08-09T14:11:03.446Z,100181.41
2022-08-09T14:14:22.319Z,100170.13
2022-08-09T14:16:29.061Z,100181.19
2022-08-09T14:18:59.703Z,100180.81
2022-08-09T14:21:32.398Z,100185.34
2022-08-09T14:24:05.554Z,100187.81
2022-08-09T14:26:39.951Z,100184.31
2022-08-09T14:29:25.674Z,100176.22
2022-08-09T14:32:04.549Z,100182.72
2022-08-09T14:34:41.039Z,100186.91
2022-08-09T14:37:12.959Z,100192.06
2022-08-09T14:39:48.422Z,100189.50
2022-08-09T14:42:31.030Z,100184.47
2022-08-09T14:46:39.643Z,100177.63
2022-08-09T14:47:57.937Z,100176.53
2022-08-09T14:50:37.128Z,100174.88
2022-08-09T14:53:14.071Z,100167.75
2022-08-09T14:55:50.100Z,100169.81
2022-08-09T14:58:19.883Z,100156.59
2022-08-09T15:00:50.951Z,100164.56
2022-08-09T15:03:21.055Z,100172.09
2022-08-09T15:05:52.269Z,100157.53
2022-08-09T15:08:23.989Z,100161.94
2022-08-09T15:11:01.222Z,100128.97
2022-08-09T15:13:48.395Z,100150.78
2022-08-09T15:16:23.895Z,100141.91
2022-08-09T15:18:59.722Z,100148.16
2022-08-09T15:21:54.744Z,100148.84
2022-08-09T15:24:27.088Z,100154.09
2022-08-09T15:26:58.074Z,100157.31
2022-08-09T15:30:48.279Z,100159.84
2022-08-09T15:32:29.764Z,100153.88
2022-08-09T15:35:01.935Z,100160.03
2022-08-09T15:37:56.805Z,100168.31
2022-08-09T15:40:44.377Z,100164.59
2022-08-09T15:43:14.038Z,100172.59
2022-08-09T15:46:07.528Z,100174.84
2022-08-09T15:48:32.790Z,100173.56
2022-08-09T15:51:02.349Z,100164.16
2022-08-09T15:54:03.906Z,100179.78
2022-08-09T15:56:35.637Z,100190.81
2022-08-09T15:59:05.266Z,100192.88
2022-08-09T16:01:36.074Z,100188.16
2022-08-09T16:04:03.922Z,100191.34
2022-08-09T16:06:34.919Z,100194.75
2022-08-09T16:09:05.457Z,100179.00
2022-08-09T16:11:34.675Z,100160.97
2022-08-09T16:14:14.138Z,100186.34
2022-08-09T16:16:48.204Z,100181.78
2022-08-09T16:19:19.428Z,100188.47
2022-08-09T16:21:52.014Z,100192.09
2022-08-09T16:24:33.555Z,100188.81
2022-08-09T16:27:04.909Z,100180.94
2022-08-09T16:29:50.376Z,100195.75
2022-08-09T16:32:33.942Z,100203.47
2022-08-09T16:35:02.432Z,100210.41
2022-08-09T16:37:53.061Z,100214.91
2022-08-09T16:40:29.480Z,100196.13
2022-08-09T16:43:07.082Z,100195.19
2022-08-09T16:45:34.546Z,100199.00
2022-08-09T16:48:39.892Z,100180.41
2022-08-09T16:50:59.546Z,100179.81
2022-08-09T16:53:34.736Z,100190.56
2022-08-09T16:56:09.712Z,100196.34
2022-08-09T16:58:42.503Z,100192.16
2022-08-09T17:01:24.563Z,100194.97
2022-08-09T17:03:54.668Z,100197.03
2022-08-09T17:06:31.215Z,100200.66
2022-08-09T17:09:17.801Z,100200.56
2022-08-09T17:11:52.368Z,100207.94
2022-08-09T17:14:26.945Z,100202.25
2022-08-09T17:17:03.255Z,100209.41
2022-08-09T17:20:05.943Z,100204.34
2022-08-09T17:22:23.926Z,100211.31
2022-08-09T17:24:54.819Z,100214.22
2022-08-09T17:27:28.597Z,100215.31
2022-08-09T17:29:56.274Z,100202.00
2022-08-09T17:32:26.752Z,100202.84
2022-08-09T17:35:10.988Z,100207.91
2022-08-09T17:38:14.337Z,100210.94
2022-08-09T17:40:29.882Z,100210.31
2022-08-09T17:42:59.132Z,100200.97
2022-08-09T17:46:01.508Z,100207.31
2022-08-09T17:48:16.051Z,100208.91
2022-08-09T17:50:48.756Z,100206.13
2022-08-09T17:53:27.536Z,100206.84
2022-08-09T17:56:04.750Z,100200.88
2022-08-09T17:58:35.571Z,100204.75
2022-08-09T18:01:03.172Z,100205.69
2022-08-09T18:03:31.872Z,100214.88
2022-08-09T18:06:00.808Z,100197.06
2022-08-09T18:08:29.215Z,100203.63
2022-08-09T18:11:02.331Z,100193.09
2022-08-09T18:13:39.445Z,100197.06
2022-08-09T18:16:11.942Z,100194.69
2022-08-09T18:18:43.235Z,100205.94
2022-08-09T18:21:23.538Z,100207.78
2022-08-09T18:24:10.173Z,100184.59
2022-08-09T18:26:46.065Z,100210.56
2022-08-09T18:30:38.916Z,100199.81
2022-08-09T18:32:05.222Z,100210.03
2022-08-09T18:34:37.582Z,100197.38
2022-08-09T18:37:10.574Z,100214.50
2022-08-09T18:39:57.675Z,100213.19
2022-08-09T18:42:31.899Z,100217.28
2022-08-09T18:45:01.374Z,100223.69
2022-08-09T18:47:37.526Z,100231.78
2022-08-09T18:50:09.945Z,100237.44
2022-08-09T18:52:38.942Z,100227.84
2022-08-09T18:55:13.694Z,100227.38
2022-08-09T18:57:45.318Z,100233.03
2022-08-09T19:00:16.506Z,100227.13
2022-08-09T19:02:50.903Z,100227.03
2022-08-09T19:05:28.776Z,100233.53
2022-08-09T19:08:10.786Z,100230.44
2022-08-09T19:10:41.529Z,100233.69
2022-08-09T19:13:22.270Z,100240.78
2022-08-09T19:15:55.753Z,100235.81
2022-08-09T19:18:33.291Z,100248.41
2022-08-09T19:21:10.614Z,100236.81
2022-08-09T19:24:37.397Z,100230.41
2022-08-09T19:26:32.430Z,100242.97
2022-08-09T19:29:15.082Z,100221.56
2022-08-09T19:31:49.377Z,100247.59
2022-08-09T19:34:22.725Z,100245.97
2022-08-09T19:36:53.546Z,100240.13
2022-08-09T19:39:43.988Z,100244.25
2022-08-09T19:42:14.660Z,100227.09
2022-08-09T19:44:50.631Z,100242.06
2022-08-09T19:47:22.767Z,100235.78
2022-08-09T19:50:07.498Z,100242.53
2022-08-09T19:52:49.787Z,100236.00
2022-08-09T19:55:25.722Z,100240.03
2022-08-09T19:57:58.573Z,100244.19
2022-08-09T20:00:26.017Z,100247.59
2022-08-09T20:04:16.690Z,100249.03
2022-08-09T20:05:46.951Z,100245.50
2022-08-09T20:08:33.293Z,100247.63
2022-08-09T20:11:05.114Z,100246.72
2022-08-09T20:13:37.150Z,100241.47
2022-08-09T20:16:35.160Z,100245.41
2022-08-09T20:19:42.580Z,100248.44
2022-08-09T20:21:56.521Z,100230.97
2022-08-09T20:24:29.501Z,100246.81
2022-08-09T20:27:08.437Z,100248.53
2022-08-09T20:29:38.598Z,100246.34
2022-08-09T20:32:30.414Z,100249.16
2022-08-09T20:34:57.198Z,100249.84
2022-08-09T20:37:25.285Z,100250.28
2022-08-09T20:40:15.690Z,100247.31
2022-08-09T20:42:53.136Z,100245.66
2022-08-09T20:45:59.462Z,100244.19
2022-08-09T20:48:21.068Z,100238.47
2022-08-09T20:50:54.323Z,100243.19
2022-08-09T20:53:37.174Z,100242.78
2022-08-09T20:56:19.916Z,100242.22
2022-08-09T20:58:57.760Z,100233.53
2022-08-09T21:01:34.197Z,100237.94
2022-08-09T21:05:54.548Z,100249.88
2022-08-09T21:07:12.503Z,100248.44
2022-08-09T21:09:56.669Z,100242.81
2022-08-09T21:15:15.603Z,100251.66
2022-08-09T21:18:24.810Z,100253.63
2022-08-09T21:20:32.961Z,100247.75
2022-08-09T21:23:04.548Z,100243.47
2022-08-09T21:25:55.706Z,100244.09
2022-08-09T21:28:34.344Z,100235.88
2022-08-09T21:31:13.598Z,100249.16
2022-08-09T21:33:50.659Z,100241.72
2022-08-09T21:36:25.757Z,100253.66
2022-08-09T21:38:58.011Z,100247.09
2022-08-09T21:42:05.075Z,100250.94
2022-08-09T21:44:33.444Z,100253.72
2022-08-09T21:47:07.828Z,100251.81
2022-08-09T21:49:42.602Z,100238.41
2022-08-09T21:52:14.704Z,100235.25
2022-08-09T21:54:50.663Z,100243.94
2022-08-09T21:57:38.971Z,100230.94
2022-08-09T22:00:25.822Z,100243.25
2022-08-09T22:02:58.953Z,100224.53
2022-08-09T22:05:35.421Z,100240.28
2022-08-09T22:08:13.933Z,100235.16
2022-08-09T22:11:01.123Z,100235.84
2022-08-09T22:13:34.892Z,100243.41
2022-08-09T22:16:08.697Z,100237.66
2022-08-09T22:18:53.351Z,100234.03
2022-08-09T22:21:44.736Z,100239.22
2022-08-09T22:24:17.226Z,100236.88
2022-08-09T22:26:52.172Z,100243.09
2022-08-09T22:29:25.556Z,100234.97
2022-08-09T22:31:57.980Z,100228.59
2022-08-09T22:34:27.265Z,100232.59
2022-08-09T22:36:56.282Z,100232.66
2022-08-09T22:39:55.448Z,100221.16
2022-08-09T22:42:21.198Z,100227.56
2022-08-09T22:48:06.133Z,100216.72
2022-08-09T22:48:14.136Z,100221.56
2022-08-09T22:50:28.007Z,100222.81
2022-08-09T22:52:58.235Z,100223.88
2022-08-09T22:55:39.774Z,100227.09
2022-08-09T22:58:20.461Z,100222.63
2022-08-09T23:01:04.049Z,100225.81
2022-08-09T23:04:04.183Z,100200.31
2022-08-09T23:06:35.714Z,100216.03
2022-08-09T23:09:07.253Z,100204.97
2022-08-09T23:11:37.389Z,100205.81
2022-08-09T23:14:10.027Z,100210.91
2022-08-09T23:16:37.830Z,100210.47
2022-08-09T23:19:05.320Z,100210.50
2022-08-09T23:21:33.886Z,100214.56
2022-08-09T23:24:06.039Z,100206.47
2022-08-09T23:26:38.352Z,100210.53
2022-08-09T23:29:11.249Z,100212.66
2022-08-09T23:31:38.684Z,100205.19
2022-08-09T23:34:09.092Z,100204.53
2022-08-09T23:36:36.758Z,100212.63
2022-08-09T23:39:06.528Z,100216.44
2022-08-09T23:41:34.571Z,100201.59
2022-08-09T23:44:02.899Z,100200.31
2022-08-09T23:46:31.520Z,100210.72
2022-08-09T23:49:00.401Z,100213.06
2022-08-09T23:51:28.464Z,100210.31
2022-08-09T23:54:01.993Z,100212.63
2022-08-09T23:56:52.118Z,100213.28
2022-08-09T23:59:23.637Z,100214.13
